Startpagina
METAR-TAF:

METAR-TAF

Vliegvelden :

Aeropuerto Internacional Rodríguez Ballón

Arequipa, Peru

breedte: 16-19S, lengte: 071-33W, hoogte: 2538 m

Actueel weer

Dit bericht is 34 minuten geleden gemaakt, om 01:00 UTC
Wind 7 kt uit het oosten
Temperatuur 15°C
Vochtigheid 20%
Druk 1026 hPa
Zicht 10 km of meer
Weinig wolken op 11000 ft

METAR: SPQU 200100Z 09007KT 9999 FEW110 15/M08 Q1026 NOSIG RMK PP000

Tijdstip: 20:34 (01:34 UTC)

Verwachting

Dit bericht is 2 uur en het 34 minuten geleden gemaakt, om 23:00 UTC
Verwachting geldig van 20 om 00 UTC tot 20 om 24 UTC
Wind 6 kt uit het noordnoordoosten
Zicht 10 km of meer
geen wolken onder 1500 m en geen cumulonimbus
Van 20 om 1430 UTC
Wind 5 kt uit het westzuidwesten
Zicht 10 km of meer
geen wolken onder 1500 m en geen cumulonimbus
Van 20 om 1800 UTC
Wind 10 kt uit het westen
Zicht 10 km of meer
geen wolken onder 1500 m en geen cumulonimbus

TAF: SPQU 192300Z 2000/2024 03006KT CAVOK TX22/2017Z TN08/2010Z FM201430 24005KT CAVOK FM201800 26010KT CAVOK

Waarnemingen en weersverwachtingen van meer dan 4000 vliegvelden (METAR en TAF).

De beschikbare stations zijn de gele en rode punten op de kaart.

Ga met uw muis naar het station om de naam te zien.

Klik dan om waarnemingen en weersverwachtingen te zien.

kaart wijzigen: klik op de groene knoppen met een zwart kruis om in te zoomen, op de groene knop met een streepje om uit te zoomen of op de groene pijlen voor aangrenzende kaarten.


METAR-TAF: